createdAt,value
2023-06-11T00:00:39.989Z,16.40
2023-06-11T00:01:40.041Z,16.80
2023-06-11T00:02:40.039Z,18.50
2023-06-11T00:03:40.104Z,17.50
2023-06-11T00:04:40.002Z,16.40
2023-06-11T00:05:39.931Z,17.90
2023-06-11T00:06:39.924Z,17.00
2023-06-11T00:07:39.908Z,17.20
2023-06-11T00:08:39.903Z,17.70
2023-06-11T00:09:39.928Z,17.70
2023-06-11T00:10:39.880Z,17.00
2023-06-11T00:11:39.879Z,16.40
2023-06-11T00:12:39.891Z,17.00
2023-06-11T00:13:39.882Z,17.30
2023-06-11T00:14:39.903Z,17.40
2023-06-11T00:15:39.865Z,16.60
2023-06-11T00:16:39.937Z,17.20
2023-06-11T00:17:39.930Z,16.40
2023-06-11T00:18:39.852Z,16.70
2023-06-11T00:19:39.847Z,16.90
2023-06-11T00:20:39.816Z,17.90
2023-06-11T00:21:39.810Z,18.80
2023-06-11T00:22:39.800Z,17.50
2023-06-11T00:23:40.425Z,18.70
2023-06-11T00:24:39.794Z,17.50
2023-06-11T00:25:39.775Z,17.60
2023-06-11T00:26:39.815Z,17.70
2023-06-11T00:27:39.764Z,18.70
2023-06-11T00:28:39.780Z,18.30
2023-06-11T00:29:39.745Z,16.90
2023-06-11T00:30:39.746Z,17.10
2023-06-11T00:31:39.812Z,17.40
2023-06-11T00:32:39.800Z,18.80
2023-06-11T00:33:39.740Z,16.70
2023-06-11T00:34:39.718Z,17.40
2023-06-11T00:35:39.714Z,17.30
2023-06-11T00:36:39.704Z,16.50
2023-06-11T00:37:39.712Z,17.00
2023-06-11T00:38:39.680Z,17.10
2023-06-11T00:39:39.685Z,18.70
2023-06-11T00:40:39.662Z,19.60
2023-06-11T00:41:39.654Z,17.50
2023-06-11T00:42:39.676Z,19.80
2023-06-11T00:43:39.637Z,17.70
2023-06-11T00:44:39.636Z,19.30
2023-06-11T00:45:39.654Z,21.20
2023-06-11T00:46:39.620Z,18.70
2023-06-11T00:47:39.681Z,21.70
2023-06-11T00:48:39.623Z,18.50
2023-06-11T00:49:39.588Z,17.90
2023-06-11T00:50:39.588Z,17.70
2023-06-11T00:51:39.608Z,17.60
2023-06-11T00:52:41.162Z,17.70
2023-06-11T00:53:39.559Z,18.90
2023-06-11T00:54:39.581Z,17.70
2023-06-11T00:55:39.552Z,18.90
2023-06-11T00:56:39.564Z,17.80
2023-06-11T00:57:39.535Z,17.60
2023-06-11T00:58:39.637Z,18.90
2023-06-11T00:59:39.519Z,17.40
2023-06-11T01:00:39.545Z,18.50
2023-06-11T01:01:39.584Z,17.90
2023-06-11T01:02:39.508Z,17.80
2023-06-11T01:03:39.480Z,19.50
2023-06-11T01:04:39.555Z,18.10
2023-06-11T01:05:40.578Z,18.90
2023-06-11T01:06:39.490Z,19.60
2023-06-11T01:07:39.469Z,20.30
2023-06-11T01:08:39.454Z,19.60
2023-06-11T01:09:39.585Z,18.50
2023-06-11T01:10:39.473Z,18.30
2023-06-11T01:11:39.437Z,19.80
2023-06-11T01:12:39.427Z,18.20
2023-06-11T01:13:39.405Z,19.30
2023-06-11T01:14:39.398Z,17.30
2023-06-11T01:15:39.416Z,18.70
2023-06-11T01:16:39.421Z,20.00
2023-06-11T01:17:39.416Z,17.10
2023-06-11T01:18:39.369Z,18.10
2023-06-11T01:19:39.365Z,17.80
2023-06-11T01:20:39.379Z,17.20
2023-06-11T01:21:39.344Z,17.00
2023-06-11T01:22:39.339Z,19.00
2023-06-11T01:23:39.378Z,18.30
2023-06-11T01:24:39.348Z,17.40
2023-06-11T01:25:39.344Z,17.90
2023-06-11T01:26:39.307Z,18.60
2023-06-11T01:27:39.288Z,18.20
2023-06-11T01:28:40.289Z,17.10
2023-06-11T01:29:39.313Z,18.40
2023-06-11T01:30:39.276Z,17.40
2023-06-11T01:31:39.292Z,17.40
2023-06-11T01:32:39.295Z,17.60
2023-06-11T01:33:39.274Z,17.60
2023-06-11T01:34:39.265Z,18.50
2023-06-11T01:35:39.239Z,18.70
2023-06-11T01:36:39.223Z,17.40
2023-06-11T01:37:39.224Z,19.20
2023-06-11T01:38:39.233Z,19.90
2023-06-11T01:39:39.240Z,20.10
2023-06-11T01:40:39.198Z,20.20
2023-06-11T01:41:39.191Z,18.50
2023-06-11T01:42:39.181Z,19.20
2023-06-11T01:43:39.212Z,20.10
2023-06-11T01:44:39.168Z,17.70
2023-06-11T01:45:39.157Z,17.40
2023-06-11T01:46:39.251Z,18.30
2023-06-11T01:47:39.167Z,17.90
2023-06-11T01:48:39.192Z,17.70
2023-06-11T01:49:39.134Z,17.70
2023-06-11T01:50:39.125Z,17.70
2023-06-11T01:51:39.113Z,18.20
2023-06-11T01:52:39.126Z,17.80
2023-06-11T01:53:39.124Z,17.80
2023-06-11T01:54:39.089Z,17.80
2023-06-11T01:55:39.089Z,18.30
2023-06-11T01:56:39.096Z,17.60
2023-06-11T01:57:39.106Z,18.90
2023-06-11T01:58:39.070Z,17.70
2023-06-11T01:59:39.062Z,18.60
2023-06-11T02:00:39.050Z,18.20
2023-06-11T02:01:39.043Z,18.60
2023-06-11T02:02:39.116Z,18.00
2023-06-11T02:03:39.089Z,19.10
2023-06-11T02:04:39.026Z,17.80
2023-06-11T02:05:39.010Z,19.30
2023-06-11T02:06:39.018Z,17.60
2023-06-11T02:07:39.026Z,18.50
2023-06-11T02:08:39.005Z,18.50
2023-06-11T02:09:38.977Z,18.70
2023-06-11T02:10:38.991Z,18.70
2023-06-11T02:11:38.995Z,19.60
2023-06-11T02:12:38.995Z,18.70
2023-06-11T02:13:38.948Z,19.10
2023-06-11T02:14:38.958Z,18.90
2023-06-11T02:15:38.943Z,18.00
2023-06-11T02:16:38.996Z,20.90
2023-06-11T02:17:38.967Z,19.50
2023-06-11T02:18:38.919Z,18.20
2023-06-11T02:19:38.903Z,19.10
2023-06-11T02:20:38.898Z,20.00
2023-06-11T02:21:38.923Z,19.00
2023-06-11T02:22:38.880Z,19.60
2023-06-11T02:23:38.890Z,18.00
2023-06-11T02:24:38.867Z,18.40
2023-06-11T02:25:38.869Z,19.00
2023-06-11T02:26:38.889Z,18.40
2023-06-11T02:27:38.842Z,18.80
2023-06-11T02:28:38.832Z,22.00
2023-06-11T02:29:38.825Z,19.10
2023-06-11T02:30:38.824Z,18.80
2023-06-11T02:31:38.928Z,18.00
2023-06-11T02:32:38.860Z,20.50
2023-06-11T02:33:38.803Z,18.50
2023-06-11T02:34:38.786Z,18.20
2023-06-11T02:35:38.784Z,20.10
2023-06-11T02:36:38.799Z,19.60
2023-06-11T02:37:38.775Z,18.60
2023-06-11T02:38:38.767Z,18.10
2023-06-11T02:39:38.771Z,19.30
2023-06-11T02:40:38.747Z,20.10
2023-06-11T02:41:38.783Z,18.60
2023-06-11T02:42:38.745Z,18.90
2023-06-11T02:43:38.721Z,18.70
2023-06-11T02:44:38.714Z,18.70
2023-06-11T02:45:38.740Z,18.70
2023-06-11T02:46:38.821Z,18.80
2023-06-11T02:47:38.751Z,18.60
2023-06-11T02:48:38.693Z,19.10
2023-06-11T02:49:38.678Z,18.80
2023-06-11T02:50:38.701Z,19.80
2023-06-11T02:51:38.667Z,20.20
2023-06-11T02:52:38.660Z,19.00
2023-06-11T02:53:38.654Z,18.60
2023-06-11T02:54:38.637Z,19.60
2023-06-11T02:55:38.664Z,19.30
2023-06-11T02:56:38.630Z,19.50
2023-06-11T02:57:38.619Z,20.20
2023-06-11T02:58:38.610Z,20.50
2023-06-11T02:59:38.615Z,19.50
2023-06-11T03:00:38.623Z,19.70
2023-06-11T03:01:38.634Z,19.50
2023-06-11T03:02:38.606Z,20.70
2023-06-11T03:03:38.623Z,19.10
2023-06-11T03:04:38.589Z,20.70
2023-06-11T03:05:38.595Z,19.30
2023-06-11T03:06:38.556Z,20.20
2023-06-11T03:07:38.555Z,19.70
2023-06-11T03:08:38.563Z,19.90
2023-06-11T03:09:38.579Z,19.90
2023-06-11T03:10:38.524Z,19.20
2023-06-11T03:11:38.516Z,20.50
2023-06-11T03:12:38.510Z,19.30
2023-06-11T03:13:38.519Z,19.40
2023-06-11T03:14:38.513Z,19.40
2023-06-11T03:15:38.551Z,20.90
2023-06-11T03:16:38.477Z,19.50
2023-06-11T03:17:38.498Z,19.00
2023-06-11T03:18:38.477Z,19.80
2023-06-11T03:19:38.456Z,19.40
2023-06-11T03:20:38.481Z,18.40
2023-06-11T03:21:38.439Z,19.50
2023-06-11T03:22:38.417Z,18.70
2023-06-11T03:23:39.448Z,18.90
2023-06-11T03:24:38.416Z,19.60
2023-06-11T03:25:38.404Z,19.40
2023-06-11T03:26:38.394Z,18.80
2023-06-11T03:27:38.392Z,20.40
2023-06-11T03:28:38.413Z,21.00
2023-06-11T03:29:38.381Z,18.80
2023-06-11T03:30:38.375Z,18.40
2023-06-11T03:31:38.426Z,20.80
2023-06-11T03:32:38.411Z,21.10
2023-06-11T03:33:38.376Z,19.30
2023-06-11T03:34:38.342Z,20.20
2023-06-11T03:35:38.325Z,19.80
2023-06-11T03:36:38.326Z,19.40
2023-06-11T03:37:38.362Z,19.40
2023-06-11T03:38:38.320Z,21.90
2023-06-11T03:39:38.311Z,19.60
2023-06-11T03:40:38.318Z,19.40
2023-06-11T03:41:38.277Z,20.90
2023-06-11T03:42:38.327Z,18.70
2023-06-11T03:43:38.266Z,20.90
2023-06-11T03:44:38.280Z,20.10
2023-06-11T03:45:38.256Z,20.00
2023-06-11T03:46:38.263Z,19.80
2023-06-11T03:47:38.337Z,19.70
2023-06-11T03:48:38.237Z,20.10
2023-06-11T03:49:38.222Z,20.70
2023-06-11T03:50:38.216Z,19.00
2023-06-11T03:51:38.230Z,19.90
2023-06-11T03:52:38.221Z,20.50
2023-06-11T03:53:38.187Z,20.10
2023-06-11T03:54:38.190Z,19.40
2023-06-11T03:55:38.204Z,19.20
2023-06-11T03:56:38.198Z,18.90
2023-06-11T03:57:38.169Z,19.50
2023-06-11T03:58:38.149Z,19.30
2023-06-11T03:59:38.141Z,20.70
2023-06-11T04:00:38.167Z,20.10
2023-06-11T04:01:38.174Z,18.80
2023-06-11T04:02:39.213Z,19.80
2023-06-11T04:03:38.208Z,21.30
2023-06-11T04:04:38.306Z,18.90
2023-06-11T04:05:38.290Z,19.80
2023-06-11T04:06:38.094Z,19.40
2023-06-11T04:07:38.084Z,18.70
2023-06-11T04:08:38.071Z,20.60
2023-06-11T04:09:38.069Z,19.10
2023-06-11T04:10:38.140Z,19.90
2023-06-11T04:11:38.053Z,18.00
2023-06-11T04:12:38.066Z,20.20
2023-06-11T04:13:38.045Z,18.40
2023-06-11T04:14:38.032Z,18.90
2023-06-11T04:15:38.039Z,18.20
2023-06-11T04:16:38.065Z,19.20
2023-06-11T04:17:38.066Z,19.00
2023-06-11T04:18:37.997Z,18.30
2023-06-11T04:19:38.019Z,17.80
2023-06-11T04:20:38.026Z,18.30
2023-06-11T04:21:37.981Z,19.50
2023-06-11T04:22:37.975Z,18.70
2023-06-11T04:23:38.001Z,17.50
2023-06-11T04:24:37.992Z,18.30
2023-06-11T04:25:37.956Z,17.90
2023-06-11T04:26:37.939Z,18.60
2023-06-11T04:27:37.976Z,18.10
2023-06-11T04:28:37.926Z,18.00
2023-06-11T04:29:37.934Z,17.90
2023-06-11T04:30:37.935Z,17.70
2023-06-11T04:31:37.965Z,17.80
2023-06-11T04:32:37.963Z,18.50
2023-06-11T04:33:37.925Z,19.80
2023-06-11T04:34:37.910Z,17.90
2023-06-11T04:35:37.868Z,18.10
2023-06-11T04:36:37.861Z,17.70
2023-06-11T04:37:37.867Z,19.20
2023-06-11T04:38:37.873Z,17.10
2023-06-11T04:39:37.844Z,17.10
2023-06-11T04:40:37.864Z,17.40
2023-06-11T04:41:37.899Z,17.00
2023-06-11T04:42:37.815Z,17.10
2023-06-11T04:43:37.834Z,16.80
2023-06-11T04:44:37.836Z,17.10
2023-06-11T04:45:37.809Z,16.60
2023-06-11T04:46:37.840Z,16.20
2023-06-11T04:47:37.810Z,17.00
2023-06-11T04:48:37.803Z,16.90
2023-06-11T04:49:37.765Z,17.90
2023-06-11T04:50:37.795Z,16.50
2023-06-11T04:51:38.743Z,16.60
2023-06-11T04:52:37.763Z,17.10
2023-06-11T04:53:37.760Z,16.50
2023-06-11T04:54:37.726Z,17.40
2023-06-11T04:55:37.736Z,16.80
2023-06-11T04:56:37.736Z,17.40
2023-06-11T04:57:37.747Z,17.30
2023-06-11T04:58:37.700Z,17.20
2023-06-11T04:59:37.702Z,17.10
2023-06-11T05:00:37.677Z,17.00
2023-06-11T05:01:37.736Z,16.90
2023-06-11T05:02:37.707Z,16.70
2023-06-11T05:03:37.663Z,18.10
2023-06-11T05:04:37.654Z,16.90
2023-06-11T05:05:37.686Z,16.90
2023-06-11T05:06:37.666Z,17.00
2023-06-11T05:07:37.654Z,17.50
2023-06-11T05:08:37.639Z,16.70
2023-06-11T05:09:37.647Z,16.80
2023-06-11T05:10:37.605Z,17.10
2023-06-11T05:11:37.671Z,16.80
2023-06-11T05:12:37.634Z,17.30
2023-06-11T05:13:37.589Z,16.90
2023-06-11T05:14:37.581Z,17.20
2023-06-11T05:15:37.574Z,17.40
2023-06-11T05:16:37.609Z,17.40
2023-06-11T05:17:37.626Z,17.20
2023-06-11T05:18:37.560Z,17.40
2023-06-11T05:19:37.548Z,18.00
2023-06-11T05:20:37.540Z,17.20
2023-06-11T05:21:37.559Z,16.60
2023-06-11T05:22:37.523Z,15.90
2023-06-11T05:23:37.530Z,16.10
2023-06-11T05:24:37.506Z,15.80
2023-06-11T05:25:37.565Z,16.90
2023-06-11T05:26:37.517Z,16.90
2023-06-11T05:27:37.501Z,16.70
2023-06-11T05:28:37.471Z,16.90
2023-06-11T05:29:37.464Z,17.20
2023-06-11T05:30:37.496Z,17.00
2023-06-11T05:31:37.541Z,17.50
2023-06-11T05:32:37.456Z,17.40
2023-06-11T05:33:37.445Z,17.70
2023-06-11T05:34:37.434Z,17.40
2023-06-11T05:35:37.454Z,17.80
2023-06-11T05:36:37.427Z,17.80
2023-06-11T05:37:37.406Z,18.10
2023-06-11T05:38:37.401Z,18.00
2023-06-11T05:39:37.417Z,18.80
2023-06-11T05:40:37.430Z,18.60
2023-06-11T05:41:37.377Z,18.60
2023-06-11T05:42:37.382Z,19.20
2023-06-11T05:43:37.378Z,18.60
2023-06-11T05:44:37.379Z,19.20
2023-06-11T05:45:37.369Z,18.70
2023-06-11T05:46:37.410Z,19.20
2023-06-11T05:47:37.394Z,18.30
2023-06-11T05:48:37.333Z,19.60
2023-06-11T05:49:37.349Z,19.10
2023-06-11T05:50:37.330Z,19.30
2023-06-11T05:51:37.315Z,19.30
2023-06-11T05:52:37.298Z,19.40
2023-06-11T05:53:37.338Z,20.20
2023-06-11T05:54:37.314Z,20.10
2023-06-11T05:55:37.285Z,20.80
2023-06-11T05:56:37.261Z,19.50
2023-06-11T05:57:37.259Z,19.00
2023-06-11T05:58:38.278Z,19.10
2023-06-11T05:59:37.256Z,20.30
2023-06-11T06:00:37.234Z,19.40
2023-06-11T06:01:37.229Z,19.90
2023-06-11T06:02:37.312Z,21.50
2023-06-11T06:03:37.362Z,20.60
2023-06-11T06:04:37.261Z,19.60
2023-06-11T06:05:37.249Z,19.80
2023-06-11T06:06:37.204Z,19.60
2023-06-11T06:07:37.200Z,19.80
2023-06-11T06:08:37.203Z,19.30
2023-06-11T06:09:38.177Z,19.90
2023-06-11T06:10:37.177Z,19.40
2023-06-11T06:11:37.156Z,19.50
2023-06-11T06:12:37.166Z,18.60
2023-06-11T06:13:37.164Z,19.40
2023-06-11T06:14:37.137Z,19.40
2023-06-11T06:15:37.144Z,18.80
2023-06-11T06:16:37.147Z,19.40
2023-06-11T06:17:37.159Z,18.90
2023-06-11T06:18:37.098Z,19.50
2023-06-11T06:19:37.088Z,20.60
2023-06-11T06:20:37.083Z,19.10
2023-06-11T06:21:37.082Z,19.20
2023-06-11T06:22:37.091Z,18.70
2023-06-11T06:23:37.073Z,19.30
2023-06-11T06:24:37.053Z,19.70
2023-06-11T06:25:37.072Z,19.60
2023-06-11T06:26:37.036Z,19.50
2023-06-11T06:27:37.061Z,18.90
2023-06-11T06:28:37.022Z,17.60
2023-06-11T06:29:37.037Z,18.70
2023-06-11T06:30:37.008Z,18.10
2023-06-11T06:31:37.053Z,17.60
2023-06-11T06:32:37.098Z,17.80
2023-06-11T06:33:36.997Z,20.40
2023-06-11T06:34:36.973Z,17.90
2023-06-11T06:35:36.985Z,17.80
2023-06-11T06:36:36.986Z,18.40
2023-06-11T06:37:36.957Z,17.10
2023-06-11T06:38:36.947Z,18.40
2023-06-11T06:39:36.952Z,17.20
2023-06-11T06:40:36.935Z,19.10
2023-06-11T06:41:36.959Z,19.20
2023-06-11T06:42:36.924Z,18.80
2023-06-11T06:43:36.930Z,17.60
2023-06-11T06:44:36.962Z,18.10
2023-06-11T06:45:36.934Z,17.50
2023-06-11T06:46:36.915Z,18.00
2023-06-11T06:47:36.973Z,17.50
2023-06-11T06:48:36.956Z,17.40
2023-06-11T06:49:36.869Z,18.20
2023-06-11T06:50:36.888Z,18.70
2023-06-11T06:51:36.848Z,17.30
2023-06-11T06:52:36.848Z,17.30
2023-06-11T06:53:36.897Z,17.60
2023-06-11T06:54:36.842Z,16.80
2023-06-11T06:55:36.854Z,16.70
2023-06-11T06:56:36.819Z,17.20
2023-06-11T06:57:36.807Z,17.10
2023-06-11T06:58:36.791Z,17.10
2023-06-11T06:59:36.789Z,16.60
2023-06-11T07:00:36.826Z,17.20
2023-06-11T07:01:36.852Z,16.70
2023-06-11T07:02:36.795Z,16.80
2023-06-11T07:03:36.770Z,16.70
2023-06-11T07:04:36.762Z,16.50
2023-06-11T07:05:36.788Z,16.10
2023-06-11T07:06:36.777Z,16.60
2023-06-11T07:07:36.729Z,16.70
2023-06-11T07:08:36.716Z,16.40
2023-06-11T07:09:36.764Z,16.50
2023-06-11T07:10:36.735Z,16.80
2023-06-11T07:11:36.731Z,16.80
2023-06-11T07:12:36.697Z,16.10
2023-06-11T07:13:36.677Z,17.00
2023-06-11T07:14:36.691Z,19.00
2023-06-11T07:15:36.716Z,16.70
2023-06-11T07:16:36.779Z,16.30
2023-06-11T07:17:36.669Z,16.60
2023-06-11T07:18:37.229Z,17.30
2023-06-11T07:19:36.670Z,16.20
2023-06-11T07:20:36.703Z,18.60
2023-06-11T07:21:36.684Z,16.40
2023-06-11T07:22:36.625Z,16.20
2023-06-11T07:23:36.655Z,15.80
2023-06-11T07:24:36.716Z,17.00
2023-06-11T07:25:36.588Z,16.80
2023-06-11T07:26:36.584Z,16.00
2023-06-11T07:27:36.578Z,16.40
2023-06-11T07:28:36.596Z,15.90
2023-06-11T07:29:36.564Z,15.60
2023-06-11T07:30:36.549Z,15.30
2023-06-11T07:31:36.586Z,16.30
2023-06-11T07:32:36.578Z,16.50
2023-06-11T07:33:36.548Z,16.60
2023-06-11T07:34:36.536Z,16.10
2023-06-11T07:35:36.513Z,16.20
2023-06-11T07:36:36.514Z,16.30
2023-06-11T07:37:36.523Z,16.60
2023-06-11T07:38:36.512Z,17.50
2023-06-11T07:39:36.485Z,15.10
2023-06-11T07:40:36.476Z,15.40
2023-06-11T07:41:36.477Z,15.20
2023-06-11T07:42:36.488Z,17.00
2023-06-11T07:43:36.474Z,15.90
2023-06-11T07:44:36.456Z,17.30
2023-06-11T07:45:36.450Z,15.60
2023-06-11T07:46:36.476Z,14.90
2023-06-11T07:47:36.519Z,15.30
2023-06-11T07:48:36.415Z,15.60
2023-06-11T07:49:36.402Z,15.50
2023-06-11T07:50:36.409Z,19.90
2023-06-11T07:51:36.417Z,15.70
2023-06-11T07:52:36.405Z,15.50
2023-06-11T07:53:36.376Z,15.80
2023-06-11T07:54:36.377Z,14.90
2023-06-11T07:55:36.354Z,14.00
2023-06-11T07:56:36.387Z,13.80
2023-06-11T07:57:36.347Z,15.20
2023-06-11T07:58:36.364Z,13.70
2023-06-11T07:59:36.342Z,15.60
2023-06-11T08:00:36.348Z,13.50
2023-06-11T08:01:36.378Z,15.10
2023-06-11T08:02:36.445Z,16.50
2023-06-11T08:03:36.315Z,13.80
2023-06-11T08:04:36.283Z,13.70
2023-06-11T08:05:36.328Z,13.60
2023-06-11T08:06:36.270Z,14.80
2023-06-11T08:07:36.278Z,14.50
2023-06-11T08:08:36.263Z,13.60
2023-06-11T08:09:36.256Z,14.60
2023-06-11T08:10:37.271Z,13.30
2023-06-11T08:11:36.245Z,13.50
2023-06-11T08:12:36.742Z,13.30
2023-06-11T08:13:36.215Z,14.30
2023-06-11T08:14:36.245Z,13.20
2023-06-11T08:15:36.229Z,13.10
2023-06-11T08:16:36.219Z,12.80
2023-06-11T08:17:36.221Z,13.30
2023-06-11T08:18:36.180Z,12.70
2023-06-11T08:19:36.207Z,13.40
2023-06-11T08:20:36.211Z,13.60
2023-06-11T08:21:36.166Z,12.60
2023-06-11T08:22:36.185Z,13.00
2023-06-11T08:23:36.195Z,13.60
2023-06-11T08:24:36.159Z,13.50
2023-06-11T08:25:36.135Z,12.20
2023-06-11T08:26:36.127Z,12.60
2023-06-11T08:27:36.143Z,12.70
2023-06-11T08:28:36.118Z,12.90
2023-06-11T08:29:36.144Z,12.60
2023-06-11T08:30:36.142Z,11.80
2023-06-11T08:31:36.131Z,13.40
2023-06-11T08:32:36.189Z,13.00
2023-06-11T08:33:36.097Z,11.00
2023-06-11T08:34:36.094Z,11.00
2023-06-11T08:35:36.064Z,11.30
2023-06-11T08:36:36.053Z,11.20
2023-06-11T08:37:36.070Z,12.10
2023-06-11T08:38:38.734Z,12.90
2023-06-11T08:39:37.024Z,12.10
2023-06-11T08:40:36.019Z,13.70
2023-06-11T08:41:36.016Z,12.10
2023-06-11T08:42:36.019Z,12.30
2023-06-11T08:43:36.023Z,11.80
2023-06-11T08:44:35.989Z,11.80
2023-06-11T08:45:35.985Z,11.80
2023-06-11T08:46:36.000Z,14.20
2023-06-11T08:47:36.044Z,11.80
2023-06-11T08:48:35.992Z,11.50
2023-06-11T08:49:38.672Z,13.30
2023-06-11T08:50:36.954Z,14.30
2023-06-11T08:51:36.958Z,11.90
2023-06-11T08:52:35.987Z,11.00
2023-06-11T08:53:35.951Z,12.20
2023-06-11T08:54:35.935Z,11.20
2023-06-11T08:55:35.941Z,11.90
2023-06-11T08:56:35.902Z,11.30
2023-06-11T08:57:35.914Z,13.00
2023-06-11T08:58:35.923Z,13.20
2023-06-11T08:59:35.874Z,12.10
2023-06-11T09:00:35.869Z,12.00
2023-06-11T09:01:35.886Z,13.10
2023-06-11T09:02:35.994Z,10.70
2023-06-11T09:03:35.872Z,12.90
2023-06-11T09:04:35.862Z,10.10
2023-06-11T09:05:35.861Z,9.50
2023-06-11T09:06:35.928Z,9.90
2023-06-11T09:07:37.643Z,10.30
2023-06-11T09:08:36.835Z,9.50
2023-06-11T09:09:35.808Z,10.00
2023-06-11T09:10:35.795Z,10.40
2023-06-11T09:11:35.810Z,8.40
2023-06-11T09:12:35.811Z,9.00
2023-06-11T09:13:35.778Z,9.30
2023-06-11T09:14:35.776Z,10.50
2023-06-11T09:15:35.793Z,8.80
2023-06-11T09:16:35.838Z,9.90
2023-06-11T09:17:35.778Z,7.50
2023-06-11T09:18:35.744Z,8.00
2023-06-11T09:19:35.730Z,8.50
2023-06-11T09:20:35.716Z,7.70
2023-06-11T09:21:35.733Z,8.60
2023-06-11T09:22:35.720Z,9.40
2023-06-11T09:23:35.827Z,8.20
2023-06-11T09:24:35.694Z,8.00
2023-06-11T09:25:35.694Z,8.80
2023-06-11T09:26:35.705Z,7.90
2023-06-11T09:27:35.669Z,7.90
2023-06-11T09:28:35.677Z,7.40
2023-06-11T09:29:35.672Z,8.20
2023-06-11T09:30:35.682Z,8.30
2023-06-11T09:31:35.732Z,7.70
2023-06-11T09:32:35.813Z,8.40
2023-06-11T09:33:35.649Z,10.10
2023-06-11T09:34:35.621Z,9.40
2023-06-11T09:35:35.656Z,8.20
2023-06-11T09:36:35.619Z,10.50
2023-06-11T09:37:35.598Z,7.90
2023-06-11T09:38:36.193Z,7.50
2023-06-11T09:39:35.594Z,8.10
2023-06-11T09:40:35.613Z,9.10
2023-06-11T09:41:35.571Z,9.30
2023-06-11T09:42:35.570Z,8.10
2023-06-11T09:43:35.562Z,8.80
2023-06-11T09:44:35.573Z,8.30
2023-06-11T09:45:35.601Z,8.90
2023-06-11T09:46:35.599Z,7.70
2023-06-11T09:47:35.544Z,8.60
2023-06-11T09:48:35.538Z,9.20
2023-06-11T09:49:35.541Z,8.10
2023-06-11T09:50:35.497Z,9.80
2023-06-11T09:51:35.503Z,9.50
2023-06-11T09:52:35.495Z,7.80
2023-06-11T09:53:36.542Z,7.90
2023-06-11T09:54:35.507Z,8.30
2023-06-11T09:55:35.468Z,8.40
2023-06-11T09:56:35.468Z,9.20
2023-06-11T09:57:35.454Z,7.80
2023-06-11T09:58:35.460Z,9.00
2023-06-11T09:59:35.458Z,9.30
2023-06-11T10:00:35.431Z,8.30
2023-06-11T10:01:35.532Z,8.60
2023-06-11T10:02:35.434Z,11.40
2023-06-11T10:03:35.563Z,7.50
2023-06-11T10:04:35.408Z,8.30
2023-06-11T10:05:35.488Z,9.50
2023-06-11T10:06:35.387Z,9.20
2023-06-11T10:07:36.461Z,9.30
2023-06-11T10:08:35.450Z,10.00
2023-06-11T10:09:35.376Z,10.00
2023-06-11T10:10:35.371Z,9.90
2023-06-11T10:11:35.360Z,8.60
2023-06-11T10:12:35.462Z,9.00
2023-06-11T10:13:35.366Z,10.20
2023-06-11T10:14:35.326Z,8.60
2023-06-11T10:15:35.317Z,8.30
2023-06-11T10:16:35.379Z,8.40
2023-06-11T10:17:35.375Z,9.40
2023-06-11T10:18:35.297Z,8.90
2023-06-11T10:19:35.297Z,8.10
2023-06-11T10:20:35.289Z,9.80
2023-06-11T10:21:35.316Z,8.10
2023-06-11T10:22:35.327Z,8.30
2023-06-11T10:23:35.334Z,10.90
2023-06-11T10:24:35.296Z,8.90
2023-06-11T10:25:35.262Z,8.40
2023-06-11T10:26:35.242Z,7.90
2023-06-11T10:27:35.250Z,8.60
2023-06-11T10:28:35.220Z,8.90
2023-06-11T10:29:35.217Z,9.50
2023-06-11T10:30:35.224Z,10.30
2023-06-11T10:31:35.211Z,8.80
2023-06-11T10:32:35.310Z,8.70
2023-06-11T10:33:35.259Z,7.80
2023-06-11T10:34:35.254Z,8.70
2023-06-11T10:35:35.191Z,8.70
2023-06-11T10:36:35.214Z,8.30
2023-06-11T10:37:35.197Z,10.20
2023-06-11T10:38:35.169Z,10.70
2023-06-11T10:39:35.147Z,8.00
2023-06-11T10:40:35.164Z,8.90
2023-06-11T10:41:35.173Z,9.40
2023-06-11T10:42:35.142Z,9.10
2023-06-11T10:43:35.131Z,8.20
2023-06-11T10:44:35.121Z,9.00
2023-06-11T10:45:35.112Z,9.00
2023-06-11T10:46:35.184Z,8.30
2023-06-11T10:47:35.167Z,9.30
2023-06-11T10:48:35.089Z,9.50
2023-06-11T10:49:35.088Z,8.90
2023-06-11T10:50:35.130Z,9.10
2023-06-11T10:51:36.518Z,8.50
2023-06-11T10:52:35.052Z,9.00
2023-06-11T10:53:35.048Z,8.90
2023-06-11T10:54:35.035Z,7.90
2023-06-11T10:55:35.068Z,9.50
2023-06-11T10:56:35.030Z,8.10
2023-06-11T10:57:35.020Z,8.20
2023-06-11T10:58:35.023Z,9.20
2023-06-11T10:59:35.012Z,7.90
2023-06-11T11:00:35.021Z,7.70
2023-06-11T11:01:34.995Z,8.50
2023-06-11T11:02:34.985Z,7.10
2023-06-11T11:03:35.071Z,8.20
2023-06-11T11:04:34.998Z,9.10
2023-06-11T11:05:34.984Z,7.90
2023-06-11T11:06:34.949Z,7.10
2023-06-11T11:07:34.947Z,7.00
2023-06-11T11:08:34.935Z,8.30
2023-06-11T11:09:34.957Z,6.70
2023-06-11T11:10:34.937Z,8.10
2023-06-11T11:11:34.924Z,6.80
2023-06-11T11:12:34.910Z,9.90
2023-06-11T11:13:34.918Z,9.10
2023-06-11T11:14:34.906Z,8.50
2023-06-11T11:15:34.888Z,8.10
2023-06-11T11:16:34.957Z,7.80
2023-06-11T11:17:34.926Z,7.50
2023-06-11T11:18:34.868Z,8.50
2023-06-11T11:19:34.924Z,8.20
2023-06-11T11:20:34.833Z,8.50
2023-06-11T11:21:34.835Z,9.60
2023-06-11T11:22:34.833Z,7.30
2023-06-11T11:23:34.945Z,8.70
2023-06-11T11:24:35.537Z,7.80
2023-06-11T11:25:34.808Z,6.50
2023-06-11T11:26:34.787Z,8.30
2023-06-11T11:27:34.792Z,6.70
2023-06-11T11:28:35.449Z,10.00
2023-06-11T11:29:35.807Z,8.10
2023-06-11T11:30:34.780Z,7.30
2023-06-11T11:31:34.818Z,8.50
2023-06-11T11:32:34.858Z,9.00
2023-06-11T11:33:34.763Z,7.30
2023-06-11T11:34:34.784Z,8.40
2023-06-11T11:35:34.728Z,9.30
2023-06-11T11:36:34.724Z,7.90
2023-06-11T11:37:34.716Z,9.40
2023-06-11T11:38:34.730Z,6.90
2023-06-11T11:39:34.709Z,8.70
2023-06-11T11:40:34.695Z,9.50
2023-06-11T11:41:34.684Z,12.00
2023-06-11T11:42:34.678Z,8.20
2023-06-11T11:43:34.715Z,7.60
2023-06-11T11:44:34.671Z,8.00
2023-06-11T11:45:34.688Z,7.50
2023-06-11T11:46:34.813Z,8.50
2023-06-11T11:47:34.688Z,7.90
2023-06-11T11:48:34.672Z,8.50
2023-06-11T11:49:34.626Z,7.80
2023-06-11T11:50:35.048Z,8.40
2023-06-11T11:51:34.614Z,8.10
2023-06-11T11:52:34.634Z,8.30
2023-06-11T11:53:34.610Z,7.60
2023-06-11T11:54:34.592Z,9.80
2023-06-11T11:55:34.640Z,7.90
2023-06-11T11:56:34.569Z,9.50
2023-06-11T11:57:34.583Z,10.20
2023-06-11T11:58:34.564Z,8.30
2023-06-11T11:59:34.537Z,7.80
2023-06-11T12:00:34.539Z,9.50
2023-06-11T12:01:34.559Z,8.00
2023-06-11T12:02:34.616Z,6.30
2023-06-11T12:03:34.750Z,7.30
2023-06-11T12:04:34.496Z,7.30
2023-06-11T12:05:34.538Z,7.00
2023-06-11T12:06:34.523Z,6.20
2023-06-11T12:07:34.483Z,6.20
2023-06-11T12:08:34.476Z,6.40
2023-06-11T12:09:34.478Z,8.20
2023-06-11T12:10:34.464Z,6.70
2023-06-11T12:11:34.498Z,9.90
2023-06-11T12:12:34.434Z,7.90
2023-06-11T12:13:35.508Z,8.40
2023-06-11T12:14:34.423Z,6.90
2023-06-11T12:15:34.460Z,6.10
2023-06-11T12:16:34.471Z,7.10
2023-06-11T12:17:34.407Z,6.30
2023-06-11T12:18:34.547Z,7.20
2023-06-11T12:19:34.421Z,6.80
2023-06-11T12:20:34.453Z,6.50
2023-06-11T12:21:34.368Z,6.60
2023-06-11T12:22:34.360Z,8.20
2023-06-11T12:23:34.411Z,6.60
2023-06-11T12:24:34.447Z,6.20
2023-06-11T12:25:34.402Z,7.90
2023-06-11T12:26:34.346Z,7.20
2023-06-11T12:27:34.326Z,7.20
2023-06-11T12:28:34.321Z,8.70
2023-06-11T12:29:34.339Z,6.90
2023-06-11T12:30:34.329Z,7.00
2023-06-11T12:31:34.335Z,8.10
2023-06-11T12:32:34.323Z,8.30
2023-06-11T12:33:34.283Z,6.40
2023-06-11T12:34:34.299Z,7.20
2023-06-11T12:35:34.279Z,5.60
2023-06-11T12:36:34.265Z,7.40
2023-06-11T12:37:34.254Z,6.10
2023-06-11T12:38:34.246Z,7.30
2023-06-11T12:39:34.269Z,6.70
2023-06-11T12:40:34.220Z,8.10
2023-06-11T12:41:34.216Z,6.00
2023-06-11T12:42:34.230Z,8.60
2023-06-11T12:43:34.212Z,6.30
2023-06-11T12:44:34.265Z,7.80
2023-06-11T12:45:34.250Z,6.70
2023-06-11T12:46:34.213Z,7.00
2023-06-11T12:47:34.231Z,8.90
2023-06-11T12:48:34.201Z,6.60
2023-06-11T12:49:34.212Z,5.90
2023-06-11T12:50:34.146Z,8.20
2023-06-11T12:51:34.158Z,6.90
2023-06-11T12:52:34.152Z,7.10
2023-06-11T12:53:34.173Z,6.90
2023-06-11T12:54:34.113Z,6.30
2023-06-11T12:55:34.116Z,8.00
2023-06-11T12:56:34.109Z,6.80
2023-06-11T12:57:34.105Z,6.00
2023-06-11T12:58:34.118Z,7.60
2023-06-11T12:59:34.087Z,8.40